sensor_id;sensor_type;location;lat;lon;timestamp;temperature;humidity
22852;DHT22;11592;45.460;9.240;2022-11-20T00:00:55;8.50;99.90
22852;DHT22;11592;45.460;9.240;2022-11-20T00:03:23;8.50;99.90
22852;DHT22;11592;45.460;9.240;2022-11-20T00:05:49;8.30;99.90
22852;DHT22;11592;45.460;9.240;2022-11-20T00:08:16;8.30;99.90
22852;DHT22;11592;45.460;9.240;2022-11-20T00:10:43;8.00;99.90
22852;DHT22;11592;45.460;9.240;2022-11-20T00:13:10;8.10;99.90
22852;DHT22;11592;45.460;9.240;2022-11-20T00:15:36;8.00;99.90
22852;DHT22;11592;45.460;9.240;2022-11-20T00:18:03;8.00;99.90
22852;DHT22;11592;45.460;9.240;2022-11-20T00:20:30;8.00;99.90
22852;DHT22;11592;45.460;9.240;2022-11-20T00:22:56;8.00;99.90
22852;DHT22;11592;45.460;9.240;2022-11-20T00:25:23;8.00;99.90
22852;DHT22;11592;45.460;9.240;2022-11-20T00:27:50;7.90;99.90
22852;DHT22;11592;45.460;9.240;2022-11-20T00:30:17;7.90;99.90
22852;DHT22;11592;45.460;9.240;2022-11-20T00:32:44;7.90;99.90
22852;DHT22;11592;45.460;9.240;2022-11-20T00:35:11;7.90;99.90
22852;DHT22;11592;45.460;9.240;2022-11-20T00:37:38;7.80;99.90
22852;DHT22;11592;45.460;9.240;2022-11-20T00:40:05;7.80;99.90
22852;DHT22;11592;45.460;9.240;2022-11-20T00:42:32;7.80;99.90
22852;DHT22;11592;45.460;9.240;2022-11-20T00:45:00;7.80;99.90
22852;DHT22;11592;45.460;9.240;2022-11-20T00:47:27;7.80;99.90
22852;DHT22;11592;45.460;9.240;2022-11-20T00:49:54;7.70;99.90
22852;DHT22;11592;45.460;9.240;2022-11-20T00:52:20;7.70;99.90
22852;DHT22;11592;45.460;9.240;2022-11-20T00:54:47;7.60;99.90
22852;DHT22;11592;45.460;9.240;2022-11-20T00:57:14;7.60;99.90
22852;DHT22;11592;45.460;9.240;2022-11-20T00:59:41;7.70;99.90
22852;DHT22;11592;45.460;9.240;2022-11-20T01:02:07;7.60;99.90
22852;DHT22;11592;45.460;9.240;2022-11-20T01:04:34;7.60;99.90
22852;DHT22;11592;45.460;9.240;2022-11-20T01:07:01;7.60;99.90
22852;DHT22;11592;45.460;9.240;2022-11-20T01:09:28;7.50;99.90
22852;DHT22;11592;45.460;9.240;2022-11-20T01:11:54;7.30;99.90
22852;DHT22;11592;45.460;9.240;2022-11-20T01:14:21;7.20;99.90
22852;DHT22;11592;45.460;9.240;2022-11-20T01:16:49;7.20;99.90
22852;DHT22;11592;45.460;9.240;2022-11-20T01:19:21;7.10;99.90
22852;DHT22;11592;45.460;9.240;2022-11-20T01:21:52;7.00;99.90
22852;DHT22;11592;45.460;9.240;2022-11-20T01:24:20;6.90;99.90
22852;DHT22;11592;45.460;9.240;2022-11-20T01:26:49;6.80;99.90
22852;DHT22;11592;45.460;9.240;2022-11-20T01:29:26;6.80;99.90
22852;DHT22;11592;45.460;9.240;2022-11-20T01:31:53;6.80;99.90
22852;DHT22;11592;45.460;9.240;2022-11-20T01:34:21;6.60;99.90
22852;DHT22;11592;45.460;9.240;2022-11-20T01:36:49;6.60;99.90
22852;DHT22;11592;45.460;9.240;2022-11-20T01:39:22;6.50;99.90
22852;DHT22;11592;45.460;9.240;2022-11-20T01:41:51;6.50;99.90
22852;DHT22;11592;45.460;9.240;2022-11-20T01:44:57;6.50;99.90
22852;DHT22;11592;45.460;9.240;2022-11-20T01:47:50;6.50;99.90
22852;DHT22;11592;45.460;9.240;2022-11-20T01:50:23;6.40;99.90
22852;DHT22;11592;45.460;9.240;2022-11-20T01:52:59;6.40;99.90
22852;DHT22;11592;45.460;9.240;2022-11-20T01:55:34;6.40;99.90
22852;DHT22;11592;45.460;9.240;2022-11-20T01:58:02;6.40;99.90
22852;DHT22;11592;45.460;9.240;2022-11-20T02:00:30;6.30;99.90
22852;DHT22;11592;45.460;9.240;2022-11-20T02:02:59;6.40;99.90
22852;DHT22;11592;45.460;9.240;2022-11-20T02:08:00;6.40;99.90
22852;DHT22;11592;45.460;9.240;2022-11-20T02:10:27;6.40;99.90
22852;DHT22;11592;45.460;9.240;2022-11-20T02:12:54;6.40;99.90
22852;DHT22;11592;45.460;9.240;2022-11-20T02:15:40;6.40;99.90
22852;DHT22;11592;45.460;9.240;2022-11-20T02:18:09;6.50;99.90
22852;DHT22;11592;45.460;9.240;2022-11-20T02:20:36;6.50;99.90
22852;DHT22;11592;45.460;9.240;2022-11-20T02:23:11;6.40;99.90
22852;DHT22;11592;45.460;9.240;2022-11-20T02:25:39;6.50;99.90
22852;DHT22;11592;45.460;9.240;2022-11-20T02:28:07;6.50;99.90
22852;DHT22;11592;45.460;9.240;2022-11-20T02:30:34;6.50;99.90
22852;DHT22;11592;45.460;9.240;2022-11-20T02:33:01;6.50;99.90
22852;DHT22;11592;45.460;9.240;2022-11-20T02:37:56;6.50;99.90
22852;DHT22;11592;45.460;9.240;2022-11-20T02:40:23;6.50;99.90
22852;DHT22;11592;45.460;9.240;2022-11-20T02:42:57;6.60;99.90
22852;DHT22;11592;45.460;9.240;2022-11-20T02:45:24;6.60;99.90
22852;DHT22;11592;45.460;9.240;2022-11-20T02:47:52;6.60;99.90
22852;DHT22;11592;45.460;9.240;2022-11-20T02:50:19;6.60;99.90
22852;DHT22;11592;45.460;9.240;2022-11-20T02:52:46;6.60;99.90
22852;DHT22;11592;45.460;9.240;2022-11-20T02:55:13;6.60;99.90
22852;DHT22;11592;45.460;9.240;2022-11-20T02:57:39;6.60;99.90
22852;DHT22;11592;45.460;9.240;2022-11-20T03:00:07;6.60;99.90
22852;DHT22;11592;45.460;9.240;2022-11-20T03:02:34;6.60;99.90
22852;DHT22;11592;45.460;9.240;2022-11-20T03:05:01;6.60;99.90
22852;DHT22;11592;45.460;9.240;2022-11-20T03:07:28;6.60;99.90
22852;DHT22;11592;45.460;9.240;2022-11-20T03:09:55;6.70;99.90
22852;DHT22;11592;45.460;9.240;2022-11-20T03:12:21;6.70;99.90
22852;DHT22;11592;45.460;9.240;2022-11-20T03:14:49;6.80;99.90
22852;DHT22;11592;45.460;9.240;2022-11-20T03:17:19;6.70;99.90
22852;DHT22;11592;45.460;9.240;2022-11-20T03:19:45;6.70;99.90
22852;DHT22;11592;45.460;9.240;2022-11-20T03:22:13;6.70;99.90
22852;DHT22;11592;45.460;9.240;2022-11-20T03:24:39;6.70;99.90
22852;DHT22;11592;45.460;9.240;2022-11-20T03:27:06;6.70;99.90
22852;DHT22;11592;45.460;9.240;2022-11-20T03:29:34;6.60;99.90
22852;DHT22;11592;45.460;9.240;2022-11-20T03:32:01;6.70;99.90
22852;DHT22;11592;45.460;9.240;2022-11-20T03:34:27;6.70;99.90
22852;DHT22;11592;45.460;9.240;2022-11-20T03:36:54;6.60;99.90
22852;DHT22;11592;45.460;9.240;2022-11-20T03:39:22;6.70;99.90
22852;DHT22;11592;45.460;9.240;2022-11-20T03:41:49;6.70;99.90
22852;DHT22;11592;45.460;9.240;2022-11-20T03:44:15;6.90;99.90
22852;DHT22;11592;45.460;9.240;2022-11-20T03:46:42;7.00;99.90
22852;DHT22;11592;45.460;9.240;2022-11-20T03:49:09;6.90;99.90
22852;DHT22;11592;45.460;9.240;2022-11-20T03:51:36;6.70;99.90
22852;DHT22;11592;45.460;9.240;2022-11-20T03:54:05;6.60;99.90
22852;DHT22;11592;45.460;9.240;2022-11-20T03:56:35;6.50;99.90
22852;DHT22;11592;45.460;9.240;2022-11-20T03:59:03;6.50;99.90
22852;DHT22;11592;45.460;9.240;2022-11-20T04:01:35;6.40;99.90
22852;DHT22;11592;45.460;9.240;2022-11-20T04:04:02;6.40;99.90
22852;DHT22;11592;45.460;9.240;2022-11-20T04:06:34;6.40;99.90
22852;DHT22;11592;45.460;9.240;2022-11-20T04:09:01;6.30;99.90
22852;DHT22;11592;45.460;9.240;2022-11-20T04:11:33;6.30;99.90
22852;DHT22;11592;45.460;9.240;2022-11-20T04:14:04;6.30;99.90
22852;DHT22;11592;45.460;9.240;2022-11-20T04:16:34;6.30;99.90
22852;DHT22;11592;45.460;9.240;2022-11-20T04:19:03;6.40;99.90
22852;DHT22;11592;45.460;9.240;2022-11-20T04:21:30;6.40;99.90
22852;DHT22;11592;45.460;9.240;2022-11-20T04:23:57;6.30;99.90
22852;DHT22;11592;45.460;9.240;2022-11-20T04:26:26;6.20;99.90
22852;DHT22;11592;45.460;9.240;2022-11-20T04:28:54;6.30;99.90
22852;DHT22;11592;45.460;9.240;2022-11-20T04:31:24;6.40;99.90
22852;DHT22;11592;45.460;9.240;2022-11-20T04:33:51;6.40;99.90
22852;DHT22;11592;45.460;9.240;2022-11-20T04:36:23;6.40;99.90
22852;DHT22;11592;45.460;9.240;2022-11-20T04:38:54;6.30;99.90
22852;DHT22;11592;45.460;9.240;2022-11-20T04:41:25;6.20;99.90
22852;DHT22;11592;45.460;9.240;2022-11-20T04:43:54;6.20;99.90
22852;DHT22;11592;45.460;9.240;2022-11-20T04:46:42;6.20;99.90
22852;DHT22;11592;45.460;9.240;2022-11-20T04:49:10;6.20;99.90
22852;DHT22;11592;45.460;9.240;2022-11-20T04:51:38;6.20;99.90
22852;DHT22;11592;45.460;9.240;2022-11-20T04:54:05;6.30;99.90
22852;DHT22;11592;45.460;9.240;2022-11-20T04:56:31;6.30;99.90
22852;DHT22;11592;45.460;9.240;2022-11-20T04:59:02;6.40;99.90
22852;DHT22;11592;45.460;9.240;2022-11-20T05:01:29;6.50;99.90
22852;DHT22;11592;45.460;9.240;2022-11-20T05:03:56;6.40;99.90
22852;DHT22;11592;45.460;9.240;2022-11-20T05:06:23;6.30;99.90
22852;DHT22;11592;45.460;9.240;2022-11-20T05:08:50;6.30;99.90
22852;DHT22;11592;45.460;9.240;2022-11-20T05:11:21;6.20;99.90
22852;DHT22;11592;45.460;9.240;2022-11-20T05:13:49;6.30;99.90
22852;DHT22;11592;45.460;9.240;2022-11-20T05:16:18;6.40;99.90
22852;DHT22;11592;45.460;9.240;2022-11-20T05:18:46;6.20;99.90
22852;DHT22;11592;45.460;9.240;2022-11-20T05:21:16;6.20;99.90
22852;DHT22;11592;45.460;9.240;2022-11-20T05:23:44;6.20;99.90
22852;DHT22;11592;45.460;9.240;2022-11-20T05:26:19;6.10;99.90
22852;DHT22;11592;45.460;9.240;2022-11-20T05:28:48;6.10;99.90
22852;DHT22;11592;45.460;9.240;2022-11-20T05:31:18;6.10;99.90
22852;DHT22;11592;45.460;9.240;2022-11-20T05:33:52;6.00;99.90
22852;DHT22;11592;45.460;9.240;2022-11-20T05:36:18;6.10;99.90
22852;DHT22;11592;45.460;9.240;2022-11-20T05:38:46;6.10;99.90
22852;DHT22;11592;45.460;9.240;2022-11-20T05:41:18;6.10;99.90
22852;DHT22;11592;45.460;9.240;2022-11-20T05:43:46;6.20;99.90
22852;DHT22;11592;45.460;9.240;2022-11-20T05:46:15;6.20;99.90
22852;DHT22;11592;45.460;9.240;2022-11-20T05:48:43;6.10;99.90
22852;DHT22;11592;45.460;9.240;2022-11-20T05:51:14;6.00;99.90
22852;DHT22;11592;45.460;9.240;2022-11-20T05:53:41;6.00;99.90
22852;DHT22;11592;45.460;9.240;2022-11-20T05:56:16;6.10;99.90
22852;DHT22;11592;45.460;9.240;2022-11-20T05:58:44;6.20;99.90
22852;DHT22;11592;45.460;9.240;2022-11-20T06:01:23;6.20;99.90
22852;DHT22;11592;45.460;9.240;2022-11-20T06:03:52;6.30;99.90
22852;DHT22;11592;45.460;9.240;2022-11-20T06:06:20;6.30;99.90
22852;DHT22;11592;45.460;9.240;2022-11-20T06:08:47;6.20;99.90
22852;DHT22;11592;45.460;9.240;2022-11-20T06:11:15;6.20;99.90
22852;DHT22;11592;45.460;9.240;2022-11-20T06:13:42;6.20;99.90
22852;DHT22;11592;45.460;9.240;2022-11-20T06:16:10;6.20;99.90
22852;DHT22;11592;45.460;9.240;2022-11-20T06:18:38;6.20;99.90
22852;DHT22;11592;45.460;9.240;2022-11-20T06:21:10;6.10;99.90
22852;DHT22;11592;45.460;9.240;2022-11-20T06:23:37;6.10;99.90
22852;DHT22;11592;45.460;9.240;2022-11-20T06:26:06;6.00;99.90
22852;DHT22;11592;45.460;9.240;2022-11-20T06:28:33;6.10;99.90
22852;DHT22;11592;45.460;9.240;2022-11-20T06:31:00;6.20;99.90
22852;DHT22;11592;45.460;9.240;2022-11-20T06:33:28;6.10;99.90
22852;DHT22;11592;45.460;9.240;2022-11-20T06:35:59;6.10;99.90
22852;DHT22;11592;45.460;9.240;2022-11-20T06:38:32;6.10;99.90
22852;DHT22;11592;45.460;9.240;2022-11-20T06:40:59;6.10;99.90
22852;DHT22;11592;45.460;9.240;2022-11-20T06:43:28;6.10;99.90
22852;DHT22;11592;45.460;9.240;2022-11-20T06:45:57;6.00;99.90
22852;DHT22;11592;45.460;9.240;2022-11-20T06:48:26;6.10;99.90
22852;DHT22;11592;45.460;9.240;2022-11-20T06:50:53;6.10;99.90
22852;DHT22;11592;45.460;9.240;2022-11-20T06:53:20;6.20;99.90
22852;DHT22;11592;45.460;9.240;2022-11-20T06:55:48;6.10;99.90
22852;DHT22;11592;45.460;9.240;2022-11-20T06:58:15;6.10;99.90
22852;DHT22;11592;45.460;9.240;2022-11-20T07:00:42;6.10;99.90
22852;DHT22;11592;45.460;9.240;2022-11-20T07:03:11;6.20;99.90
22852;DHT22;11592;45.460;9.240;2022-11-20T07:05:38;6.10;99.90
22852;DHT22;11592;45.460;9.240;2022-11-20T07:08:05;6.20;99.90
22852;DHT22;11592;45.460;9.240;2022-11-20T07:10:32;6.20;99.90
22852;DHT22;11592;45.460;9.240;2022-11-20T07:12:59;6.20;99.90
22852;DHT22;11592;45.460;9.240;2022-11-20T07:15:26;6.30;99.90
22852;DHT22;11592;45.460;9.240;2022-11-20T07:17:53;6.40;99.90
22852;DHT22;11592;45.460;9.240;2022-11-20T07:20:20;6.40;99.90
22852;DHT22;11592;45.460;9.240;2022-11-20T07:22:56;6.50;99.90
22852;DHT22;11592;45.460;9.240;2022-11-20T07:25:26;6.60;99.90
22852;DHT22;11592;45.460;9.240;2022-11-20T07:27:58;6.70;99.90
22852;DHT22;11592;45.460;9.240;2022-11-20T07:30:27;6.80;99.90
22852;DHT22;11592;45.460;9.240;2022-11-20T07:32:55;6.90;99.90
22852;DHT22;11592;45.460;9.240;2022-11-20T07:35:23;6.90;99.90
22852;DHT22;11592;45.460;9.240;2022-11-20T07:37:50;6.90;99.90
22852;DHT22;11592;45.460;9.240;2022-11-20T07:40:17;7.00;99.90
22852;DHT22;11592;45.460;9.240;2022-11-20T07:42:52;7.00;99.90
22852;DHT22;11592;45.460;9.240;2022-11-20T07:45:20;7.00;99.90
22852;DHT22;11592;45.460;9.240;2022-11-20T07:47:47;7.10;99.90
22852;DHT22;11592;45.460;9.240;2022-11-20T07:50:14;7.20;99.90
22852;DHT22;11592;45.460;9.240;2022-11-20T07:52:41;7.30;99.90
22852;DHT22;11592;45.460;9.240;2022-11-20T07:55:09;7.50;99.90
22852;DHT22;11592;45.460;9.240;2022-11-20T07:57:36;7.60;99.90
22852;DHT22;11592;45.460;9.240;2022-11-20T08:00:05;7.70;99.90
22852;DHT22;11592;45.460;9.240;2022-11-20T08:02:32;7.70;99.90
22852;DHT22;11592;45.460;9.240;2022-11-20T08:04:58;7.80;99.90
22852;DHT22;11592;45.460;9.240;2022-11-20T08:07:25;7.90;99.90
22852;DHT22;11592;45.460;9.240;2022-11-20T08:09:52;8.00;99.90
22852;DHT22;11592;45.460;9.240;2022-11-20T08:12:20;8.10;99.90
22852;DHT22;11592;45.460;9.240;2022-11-20T08:15:06;8.20;99.90
22852;DHT22;11592;45.460;9.240;2022-11-20T08:17:38;8.30;99.90
22852;DHT22;11592;45.460;9.240;2022-11-20T08:20:06;8.30;99.90
22852;DHT22;11592;45.460;9.240;2022-11-20T08:22:33;8.50;99.90
22852;DHT22;11592;45.460;9.240;2022-11-20T08:24:59;8.50;99.90
22852;DHT22;11592;45.460;9.240;2022-11-20T08:27:26;8.60;99.90
22852;DHT22;11592;45.460;9.240;2022-11-20T08:29:53;8.70;99.90
22852;DHT22;11592;45.460;9.240;2022-11-20T08:32:20;8.70;99.90
22852;DHT22;11592;45.460;9.240;2022-11-20T08:34:47;8.80;99.90
22852;DHT22;11592;45.460;9.240;2022-11-20T08:37:14;8.90;99.90
22852;DHT22;11592;45.460;9.240;2022-11-20T08:39:40;9.00;99.90
22852;DHT22;11592;45.460;9.240;2022-11-20T08:42:07;9.00;99.90
22852;DHT22;11592;45.460;9.240;2022-11-20T08:44:34;9.10;99.90
22852;DHT22;11592;45.460;9.240;2022-11-20T08:47:01;9.20;99.90
22852;DHT22;11592;45.460;9.240;2022-11-20T08:49:28;9.20;99.90
22852;DHT22;11592;45.460;9.240;2022-11-20T08:51:55;9.20;99.90
22852;DHT22;11592;45.460;9.240;2022-11-20T08:54:21;9.20;99.90
22852;DHT22;11592;45.460;9.240;2022-11-20T08:56:49;9.30;99.90
22852;DHT22;11592;45.460;9.240;2022-11-20T08:59:16;9.40;99.90
22852;DHT22;11592;45.460;9.240;2022-11-20T09:02:02;9.40;99.90
22852;DHT22;11592;45.460;9.240;2022-11-20T09:04:29;9.60;99.90
22852;DHT22;11592;45.460;9.240;2022-11-20T09:06:56;9.70;99.90
22852;DHT22;11592;45.460;9.240;2022-11-20T09:09:23;9.70;99.90
22852;DHT22;11592;45.460;9.240;2022-11-20T09:11:50;9.80;99.90
22852;DHT22;11592;45.460;9.240;2022-11-20T09:14:17;9.80;99.90
22852;DHT22;11592;45.460;9.240;2022-11-20T09:16:45;9.80;99.90
22852;DHT22;11592;45.460;9.240;2022-11-20T09:19:12;9.70;99.90
22852;DHT22;11592;45.460;9.240;2022-11-20T09:21:59;9.60;99.90
22852;DHT22;11592;45.460;9.240;2022-11-20T09:24:27;9.80;99.90
22852;DHT22;11592;45.460;9.240;2022-11-20T09:26:54;9.90;99.90
22852;DHT22;11592;45.460;9.240;2022-11-20T09:29:21;9.90;99.90
22852;DHT22;11592;45.460;9.240;2022-11-20T09:31:48;10.00;99.90
22852;DHT22;11592;45.460;9.240;2022-11-20T09:34:15;10.10;99.90
22852;DHT22;11592;45.460;9.240;2022-11-20T09:36:42;10.20;99.90
22852;DHT22;11592;45.460;9.240;2022-11-20T09:39:09;10.30;99.90
22852;DHT22;11592;45.460;9.240;2022-11-20T09:47:22;10.50;99.90
22852;DHT22;11592;45.460;9.240;2022-11-20T09:54:58;10.60;99.90
22852;DHT22;11592;45.460;9.240;2022-11-20T09:57:39;10.40;99.90
22852;DHT22;11592;45.460;9.240;2022-11-20T10:00:10;10.50;99.90
22852;DHT22;11592;45.460;9.240;2022-11-20T10:03:19;10.50;99.90
22852;DHT22;11592;45.460;9.240;2022-11-20T10:05:45;10.60;99.90
22852;DHT22;11592;45.460;9.240;2022-11-20T10:08:22;10.90;99.90
22852;DHT22;11592;45.460;9.240;2022-11-20T10:16:30;11.10;99.90
22852;DHT22;11592;45.460;9.240;2022-11-20T10:19:30;11.60;99.90
22852;DHT22;11592;45.460;9.240;2022-11-20T10:30:15;11.60;99.90
22852;DHT22;11592;45.460;9.240;2022-11-20T10:32:55;11.50;99.90
22852;DHT22;11592;45.460;9.240;2022-11-20T10:35:28;11.40;99.90
22852;DHT22;11592;45.460;9.240;2022-11-20T10:38:21;11.20;99.90
22852;DHT22;11592;45.460;9.240;2022-11-20T10:40:56;11.30;99.90
22852;DHT22;11592;45.460;9.240;2022-11-20T10:43:44;11.30;99.90
22852;DHT22;11592;45.460;9.240;2022-11-20T10:46:21;11.30;99.90
22852;DHT22;11592;45.460;9.240;2022-11-20T10:48:49;11.20;99.90
22852;DHT22;11592;45.460;9.240;2022-11-20T10:51:35;11.10;99.90
22852;DHT22;11592;45.460;9.240;2022-11-20T10:56:51;11.30;99.90
22852;DHT22;11592;45.460;9.240;2022-11-20T11:02:42;11.80;99.90
22852;DHT22;11592;45.460;9.240;2022-11-20T11:07:44;17.20;99.90
22852;DHT22;11592;45.460;9.240;2022-11-20T11:13:23;25.70;92.20
22852;DHT22;11592;45.460;9.240;2022-11-20T11:15:50;29.40;77.60
22852;DHT22;11592;45.460;9.240;2022-11-20T11:18:29;31.60;62.20
22852;DHT22;11592;45.460;9.240;2022-11-20T11:20:59;31.60;56.20
22852;DHT22;11592;45.460;9.240;2022-11-20T11:23:36;30.50;56.20
22852;DHT22;11592;45.460;9.240;2022-11-20T11:26:19;29.30;57.80
22852;DHT22;11592;45.460;9.240;2022-11-20T11:29:00;29.90;56.60
22852;DHT22;11592;45.460;9.240;2022-11-20T11:31:29;32.20;53.50
22852;DHT22;11592;45.460;9.240;2022-11-20T11:34:07;31.10;53.30
22852;DHT22;11592;45.460;9.240;2022-11-20T11:36:35;31.70;50.80
22852;DHT22;11592;45.460;9.240;2022-11-20T11:39:04;33.70;48.10
22852;DHT22;11592;45.460;9.240;2022-11-20T11:41:34;33.90;48.10
22852;DHT22;11592;45.460;9.240;2022-11-20T11:47:02;31.30;48.70
22852;DHT22;11592;45.460;9.240;2022-11-20T11:49:30;31.10;49.80
22852;DHT22;11592;45.460;9.240;2022-11-20T11:52:13;30.10;50.40
22852;DHT22;11592;45.460;9.240;2022-11-20T11:54:53;29.90;50.80
22852;DHT22;11592;45.460;9.240;2022-11-20T12:07:49;30.50;50.10
22852;DHT22;11592;45.460;9.240;2022-11-20T12:10:26;30.70;50.20
22852;DHT22;11592;45.460;9.240;2022-11-20T12:13:06;30.80;49.30
22852;DHT22;11592;45.460;9.240;2022-11-20T12:15:38;31.70;47.90
22852;DHT22;11592;45.460;9.240;2022-11-20T12:18:15;30.70;48.60
22852;DHT22;11592;45.460;9.240;2022-11-20T12:21:36;30.90;48.50
22852;DHT22;11592;45.460;9.240;2022-11-20T12:23:51;30.60;48.20
22852;DHT22;11592;45.460;9.240;2022-11-20T12:29:02;30.20;49.60
22852;DHT22;11592;45.460;9.240;2022-11-20T12:37:10;33.80;44.50
22852;DHT22;11592;45.460;9.240;2022-11-20T12:39:49;34.30;44.00
22852;DHT22;11592;45.460;9.240;2022-11-20T12:50:46;31.30;46.30
22852;DHT22;11592;45.460;9.240;2022-11-20T13:02:23;29.80;47.70
22852;DHT22;11592;45.460;9.240;2022-11-20T13:07:40;30.30;47.40
22852;DHT22;11592;45.460;9.240;2022-11-20T13:16:04;32.20;45.00
22852;DHT22;11592;45.460;9.240;2022-11-20T13:18:39;32.80;43.70
22852;DHT22;11592;45.460;9.240;2022-11-20T13:21:20;31.10;45.30
22852;DHT22;11592;45.460;9.240;2022-11-20T13:23:47;30.10;46.70
22852;DHT22;11592;45.460;9.240;2022-11-20T13:26:20;29.40;47.20
22852;DHT22;11592;45.460;9.240;2022-11-20T13:29:18;29.70;46.90
22852;DHT22;11592;45.460;9.240;2022-11-20T13:31:46;30.30;45.50
22852;DHT22;11592;45.460;9.240;2022-11-20T13:34:24;30.00;46.30
22852;DHT22;11592;45.460;9.240;2022-11-20T13:36:57;29.50;46.10
22852;DHT22;11592;45.460;9.240;2022-11-20T13:39:26;28.80;46.80
22852;DHT22;11592;45.460;9.240;2022-11-20T13:42:01;28.60;47.90
22852;DHT22;11592;45.460;9.240;2022-11-20T13:44:45;28.50;47.50
22852;DHT22;11592;45.460;9.240;2022-11-20T13:47:29;28.50;47.40
22852;DHT22;11592;45.460;9.240;2022-11-20T13:49:58;28.60;47.50
22852;DHT22;11592;45.460;9.240;2022-11-20T13:55:37;29.00;46.50
22852;DHT22;11592;45.460;9.240;2022-11-20T14:01:19;28.20;47.10
22852;DHT22;11592;45.460;9.240;2022-11-20T14:03:48;29.50;45.50
22852;DHT22;11592;45.460;9.240;2022-11-20T14:06:44;29.80;44.70
22852;DHT22;11592;45.460;9.240;2022-11-20T14:09:29;29.50;45.00
22852;DHT22;11592;45.460;9.240;2022-11-20T14:11:56;28.80;44.60
22852;DHT22;11592;45.460;9.240;2022-11-20T14:14:28;26.60;46.40
22852;DHT22;11592;45.460;9.240;2022-11-20T14:17:21;24.00;49.70
22852;DHT22;11592;45.460;9.240;2022-11-20T14:19:51;22.00;53.70
22852;DHT22;11592;45.460;9.240;2022-11-20T14:22:22;20.60;56.80
22852;DHT22;11592;45.460;9.240;2022-11-20T14:25:03;19.80;58.00
22852;DHT22;11592;45.460;9.240;2022-11-20T14:27:37;19.20;59.50
22852;DHT22;11592;45.460;9.240;2022-11-20T14:30:05;19.00;60.50
22852;DHT22;11592;45.460;9.240;2022-11-20T14:32:34;18.70;62.50
22852;DHT22;11592;45.460;9.240;2022-11-20T14:35:09;18.20;63.00
22852;DHT22;11592;45.460;9.240;2022-11-20T14:37:40;17.60;64.50
22852;DHT22;11592;45.460;9.240;2022-11-20T14:40:28;17.10;65.70
22852;DHT22;11592;45.460;9.240;2022-11-20T14:42:56;16.50;67.40
22852;DHT22;11592;45.460;9.240;2022-11-20T14:45:24;16.40;70.00
22852;DHT22;11592;45.460;9.240;2022-11-20T14:47:53;16.60;69.10
22852;DHT22;11592;45.460;9.240;2022-11-20T14:50:29;16.70;68.40
22852;DHT22;11592;45.460;9.240;2022-11-20T14:53:00;16.50;69.70
22852;DHT22;11592;45.460;9.240;2022-11-20T14:55:38;16.20;70.50
22852;DHT22;11592;45.460;9.240;2022-11-20T14:58:23;16.10;71.40
22852;DHT22;11592;45.460;9.240;2022-11-20T15:01:12;16.10;72.50
22852;DHT22;11592;45.460;9.240;2022-11-20T15:03:40;16.30;73.10
22852;DHT22;11592;45.460;9.240;2022-11-20T15:06:11;16.10;74.10
22852;DHT22;11592;45.460;9.240;2022-11-20T15:08:38;16.00;74.90
22852;DHT22;11592;45.460;9.240;2022-11-20T15:11:17;16.00;76.20
22852;DHT22;11592;45.460;9.240;2022-11-20T15:13:45;16.10;76.80
22852;DHT22;11592;45.460;9.240;2022-11-20T15:16:20;15.80;77.50
22852;DHT22;11592;45.460;9.240;2022-11-20T15:18:48;15.80;80.50
22852;DHT22;11592;45.460;9.240;2022-11-20T15:21:16;15.40;80.60
22852;DHT22;11592;45.460;9.240;2022-11-20T15:23:44;15.30;82.20
22852;DHT22;11592;45.460;9.240;2022-11-20T15:26:12;15.20;85.50
22852;DHT22;11592;45.460;9.240;2022-11-20T15:28:47;15.10;86.70
22852;DHT22;11592;45.460;9.240;2022-11-20T15:31:19;14.80;91.00
22852;DHT22;11592;45.460;9.240;2022-11-20T15:33:46;14.60;90.20
22852;DHT22;11592;45.460;9.240;2022-11-20T15:36:13;14.40;90.80
22852;DHT22;11592;45.460;9.240;2022-11-20T15:38:40;14.30;91.00
22852;DHT22;11592;45.460;9.240;2022-11-20T15:41:07;14.30;91.50
22852;DHT22;11592;45.460;9.240;2022-11-20T15:43:34;14.20;91.90
22852;DHT22;11592;45.460;9.240;2022-11-20T15:46:28;14.20;92.50
22852;DHT22;11592;45.460;9.240;2022-11-20T15:48:56;14.00;95.20
22852;DHT22;11592;45.460;9.240;2022-11-20T15:51:31;13.70;97.60
22852;DHT22;11592;45.460;9.240;2022-11-20T15:53:59;13.50;99.30
22852;DHT22;11592;45.460;9.240;2022-11-20T15:56:26;13.30;99.40
22852;DHT22;11592;45.460;9.240;2022-11-20T15:58:53;13.20;99.90
22852;DHT22;11592;45.460;9.240;2022-11-20T16:01:21;13.30;99.40
22852;DHT22;11592;45.460;9.240;2022-11-20T16:03:48;13.40;99.90
22852;DHT22;11592;45.460;9.240;2022-11-20T16:06:15;13.40;99.60
22852;DHT22;11592;45.460;9.240;2022-11-20T16:08:45;13.30;99.90
22852;DHT22;11592;45.460;9.240;2022-11-20T16:11:15;13.00;99.90
22852;DHT22;11592;45.460;9.240;2022-11-20T16:13:42;12.80;99.90
22852;DHT22;11592;45.460;9.240;2022-11-20T16:16:36;12.60;99.90
22852;DHT22;11592;45.460;9.240;2022-11-20T16:19:03;12.40;99.90
22852;DHT22;11592;45.460;9.240;2022-11-20T16:21:30;12.20;99.90
22852;DHT22;11592;45.460;9.240;2022-11-20T16:24:05;12.10;99.90
22852;DHT22;11592;45.460;9.240;2022-11-20T16:26:33;12.00;99.90
22852;DHT22;11592;45.460;9.240;2022-11-20T16:29:01;11.90;99.90
22852;DHT22;11592;45.460;9.240;2022-11-20T16:31:29;11.80;99.90
22852;DHT22;11592;45.460;9.240;2022-11-20T16:33:58;11.70;99.90
22852;DHT22;11592;45.460;9.240;2022-11-20T16:36:26;11.60;99.90
22852;DHT22;11592;45.460;9.240;2022-11-20T16:38:55;11.60;99.90
22852;DHT22;11592;45.460;9.240;2022-11-20T16:41:23;11.50;99.90
22852;DHT22;11592;45.460;9.240;2022-11-20T16:43:57;11.50;99.90
22852;DHT22;11592;45.460;9.240;2022-11-20T16:46:26;11.40;99.90
22852;DHT22;11592;45.460;9.240;2022-11-20T16:48:54;11.30;99.90
22852;DHT22;11592;45.460;9.240;2022-11-20T16:51:22;11.30;99.90
22852;DHT22;11592;45.460;9.240;2022-11-20T16:53:50;11.30;99.90
22852;DHT22;11592;45.460;9.240;2022-11-20T16:56:22;11.20;99.90
22852;DHT22;11592;45.460;9.240;2022-11-20T16:58:50;11.10;99.90
22852;DHT22;11592;45.460;9.240;2022-11-20T17:01:18;11.00;99.90
22852;DHT22;11592;45.460;9.240;2022-11-20T17:04:08;11.00;99.90
22852;DHT22;11592;45.460;9.240;2022-11-20T17:06:37;11.00;99.90
22852;DHT22;11592;45.460;9.240;2022-11-20T17:09:07;10.90;99.90
22852;DHT22;11592;45.460;9.240;2022-11-20T17:11:36;10.90;99.90
22852;DHT22;11592;45.460;9.240;2022-11-20T17:14:04;10.90;99.90
22852;DHT22;11592;45.460;9.240;2022-11-20T17:16:35;10.90;99.90
22852;DHT22;11592;45.460;9.240;2022-11-20T17:19:03;10.90;99.90
22852;DHT22;11592;45.460;9.240;2022-11-20T17:21:32;10.80;99.90
22852;DHT22;11592;45.460;9.240;2022-11-20T17:24:03;10.80;99.90
22852;DHT22;11592;45.460;9.240;2022-11-20T17:26:30;10.70;99.90
22852;DHT22;11592;45.460;9.240;2022-11-20T17:29:06;10.60;99.90
22852;DHT22;11592;45.460;9.240;2022-11-20T17:31:33;10.60;99.90
22852;DHT22;11592;45.460;9.240;2022-11-20T17:34:01;10.60;99.90
22852;DHT22;11592;45.460;9.240;2022-11-20T17:36:29;10.60;99.90